sensor_id;sensor_type;location;lat;lon;timestamp;pressure;altitude;pressure_sealevel;temperature;humidity
54306;BME280;66145;45.188;5.712;2023-05-07T00:01:36;99049.53;;;18.69;57.63
54306;BME280;66145;45.188;5.712;2023-05-07T00:04:02;99069.19;;;18.80;57.35
54306;BME280;66145;45.188;5.712;2023-05-07T00:06:28;99019.97;;;18.48;57.61
54306;BME280;66145;45.188;5.712;2023-05-07T00:08:54;99080.97;;;18.80;57.44
54306;BME280;66145;45.188;5.712;2023-05-07T00:11:19;99092.59;;;18.86;57.38
54306;BME280;66145;45.188;5.712;2023-05-07T00:13:45;99086.94;;;18.82;57.34
54306;BME280;66145;45.188;5.712;2023-05-07T00:16:11;99092.44;;;18.82;56.96
54306;BME280;66145;45.188;5.712;2023-05-07T00:18:36;99052.88;;;18.57;57.36
54306;BME280;66145;45.188;5.712;2023-05-07T00:21:01;99083.06;;;18.75;57.18
54306;BME280;66145;45.188;5.712;2023-05-07T00:23:27;99088.38;;;18.80;57.17
54306;BME280;66145;45.188;5.712;2023-05-07T00:25:52;99062.25;;;18.65;57.32
54306;BME280;66145;45.188;5.712;2023-05-07T00:28:18;99091.94;;;18.80;57.42
54306;BME280;66145;45.188;5.712;2023-05-07T00:30:43;99094.06;;;18.83;57.31
54306;BME280;66145;45.188;5.712;2023-05-07T00:33:08;99086.13;;;18.82;57.20
54306;BME280;66145;45.188;5.712;2023-05-07T00:35:34;99056.91;;;18.60;57.23
54306;BME280;66145;45.188;5.712;2023-05-07T00:37:59;99060.63;;;18.64;57.30
54306;BME280;66145;45.188;5.712;2023-05-07T00:40:25;99089.34;;;18.75;57.38
54306;BME280;66145;45.188;5.712;2023-05-07T00:42:50;99055.78;;;18.61;57.15
54306;BME280;66145;45.188;5.712;2023-05-07T00:45:16;99098.72;;;18.83;57.22
54306;BME280;66145;45.188;5.712;2023-05-07T00:47:42;99096.78;;;18.83;57.13
54306;BME280;66145;45.188;5.712;2023-05-07T00:50:08;99065.63;;;18.62;57.07
54306;BME280;66145;45.188;5.712;2023-05-07T00:52:36;99059.00;;;18.54;57.09
54306;BME280;66145;45.188;5.712;2023-05-07T00:55:05;99008.44;;;18.20;56.88
54306;BME280;66145;45.188;5.712;2023-05-07T00:57:36;99079.84;;;18.73;57.13
54306;BME280;66145;45.188;5.712;2023-05-07T01:00:07;99093.22;;;18.83;57.12
54306;BME280;66145;45.188;5.712;2023-05-07T01:02:36;99090.00;;;18.81;57.00
54306;BME280;66145;45.188;5.712;2023-05-07T01:05:05;99059.16;;;18.58;56.94
54306;BME280;66145;45.188;5.712;2023-05-07T01:07:32;99095.63;;;18.76;56.91
54306;BME280;66145;45.188;5.712;2023-05-07T01:09:58;99054.31;;;18.54;56.63
54306;BME280;66145;45.188;5.712;2023-05-07T01:12:24;99071.72;;;18.59;56.67
54306;BME280;66145;45.188;5.712;2023-05-07T01:14:50;99094.69;;;18.80;56.79
54306;BME280;66145;45.188;5.712;2023-05-07T01:17:17;99067.84;;;18.60;56.82
54306;BME280;66145;45.188;5.712;2023-05-07T01:19:42;99070.94;;;18.58;56.76
54306;BME280;66145;45.188;5.712;2023-05-07T01:22:09;99108.38;;;18.80;56.59
54306;BME280;66145;45.188;5.712;2023-05-07T01:24:36;99109.19;;;18.81;56.75
54306;BME280;66145;45.188;5.712;2023-05-07T01:27:02;99031.50;;;18.28;56.74
54306;BME280;66145;45.188;5.712;2023-05-07T01:29:28;99107.88;;;18.78;56.81
54306;BME280;66145;45.188;5.712;2023-05-07T01:31:57;99106.59;;;18.76;56.69
54306;BME280;66145;45.188;5.712;2023-05-07T01:34:25;99029.88;;;18.27;56.71
54306;BME280;66145;45.188;5.712;2023-05-07T01:36:53;99044.25;;;18.32;56.62
54306;BME280;66145;45.188;5.712;2023-05-07T01:39:22;99125.94;;;18.79;56.92
54306;BME280;66145;45.188;5.712;2023-05-07T01:41:48;99089.13;;;18.54;56.73
54306;BME280;66145;45.188;5.712;2023-05-07T01:44:15;99067.00;;;18.42;56.66
54306;BME280;66145;45.188;5.712;2023-05-07T01:46:41;99111.75;;;18.77;56.50
54306;BME280;66145;45.188;5.712;2023-05-07T01:49:07;99019.41;;;18.20;56.66
54306;BME280;66145;45.188;5.712;2023-05-07T01:51:33;99011.03;;;18.16;56.68
54306;BME280;66145;45.188;5.712;2023-05-07T01:53:59;99080.44;;;18.61;56.82
54306;BME280;66145;45.188;5.712;2023-05-07T01:56:25;99080.91;;;18.54;56.49
54306;BME280;66145;45.188;5.712;2023-05-07T01:58:50;99113.69;;;18.77;56.82
54306;BME280;66145;45.188;5.712;2023-05-07T02:01:17;99103.38;;;18.74;56.67
54306;BME280;66145;45.188;5.712;2023-05-07T02:03:43;99109.00;;;18.77;56.71
54306;BME280;66145;45.188;5.712;2023-05-07T02:06:08;99067.19;;;18.54;56.75
54306;BME280;66145;45.188;5.712;2023-05-07T02:08:33;99081.69;;;18.54;56.74
54306;BME280;66145;45.188;5.712;2023-05-07T02:10:59;99073.81;;;18.53;56.79
54306;BME280;66145;45.188;5.712;2023-05-07T02:13:28;99073.13;;;18.47;56.65
54306;BME280;66145;45.188;5.712;2023-05-07T02:15:53;99110.44;;;18.66;56.54
54306;BME280;66145;45.188;5.712;2023-05-07T02:18:19;99023.88;;;18.16;56.52
54306;BME280;66145;45.188;5.712;2023-05-07T02:20:44;99106.75;;;18.70;56.67
54306;BME280;66145;45.188;5.712;2023-05-07T02:23:09;99114.00;;;18.75;56.57
54306;BME280;66145;45.188;5.712;2023-05-07T02:25:35;99095.75;;;18.62;56.71
54306;BME280;66145;45.188;5.712;2023-05-07T02:28:00;99106.25;;;18.68;56.50
54306;BME280;66145;45.188;5.712;2023-05-07T02:30:26;99109.63;;;18.74;56.81
54306;BME280;66145;45.188;5.712;2023-05-07T02:32:51;99015.88;;;18.19;56.71
54306;BME280;66145;45.188;5.712;2023-05-07T02:35:17;99076.53;;;18.53;56.55
54306;BME280;66145;45.188;5.712;2023-05-07T02:37:42;99106.41;;;18.72;56.68
54306;BME280;66145;45.188;5.712;2023-05-07T02:40:08;99080.41;;;18.52;56.66
54306;BME280;66145;45.188;5.712;2023-05-07T02:42:34;99088.16;;;18.59;56.54
54306;BME280;66145;45.188;5.712;2023-05-07T02:44:59;99107.22;;;18.73;56.60
54306;BME280;66145;45.188;5.712;2023-05-07T02:47:25;99108.63;;;18.61;56.37
54306;BME280;66145;45.188;5.712;2023-05-07T02:49:54;99116.56;;;18.72;56.67
54306;BME280;66145;45.188;5.712;2023-05-07T02:52:20;99113.00;;;18.71;56.63
54306;BME280;66145;45.188;5.712;2023-05-07T02:54:45;99116.25;;;18.73;56.95
54306;BME280;66145;45.188;5.712;2023-05-07T02:57:10;99102.50;;;18.64;56.66
54306;BME280;66145;45.188;5.712;2023-05-07T02:59:36;99096.72;;;18.66;56.79
54306;BME280;66145;45.188;5.712;2023-05-07T03:02:01;99102.34;;;18.61;56.55
54306;BME280;66145;45.188;5.712;2023-05-07T03:04:27;99103.16;;;18.70;56.67
54306;BME280;66145;45.188;5.712;2023-05-07T03:06:52;99078.94;;;18.54;56.66
54306;BME280;66145;45.188;5.712;2023-05-07T03:09:17;99104.78;;;18.71;56.73
54306;BME280;66145;45.188;5.712;2023-05-07T03:11:43;99059.75;;;18.46;56.69
54306;BME280;66145;45.188;5.712;2023-05-07T03:14:08;99086.91;;;18.65;56.64
54306;BME280;66145;45.188;5.712;2023-05-07T03:16:33;99077.69;;;18.61;56.58
54306;BME280;66145;45.188;5.712;2023-05-07T03:18:59;99046.38;;;18.44;56.54
54306;BME280;66145;45.188;5.712;2023-05-07T03:21:25;99082.22;;;18.65;56.67
54306;BME280;66145;45.188;5.712;2023-05-07T03:23:51;99085.16;;;18.69;56.62
54306;BME280;66145;45.188;5.712;2023-05-07T03:26:16;99049.78;;;18.50;56.52
54306;BME280;66145;45.188;5.712;2023-05-07T03:28:42;99056.09;;;18.50;56.64
54306;BME280;66145;45.188;5.712;2023-05-07T03:31:07;99092.22;;;18.70;56.44
54306;BME280;66145;45.188;5.712;2023-05-07T03:33:33;99096.41;;;18.67;56.54
54306;BME280;66145;45.188;5.712;2023-05-07T03:35:59;99067.66;;;18.47;56.60
54306;BME280;66145;45.188;5.712;2023-05-07T03:38:24;99039.41;;;18.29;56.60
54306;BME280;66145;45.188;5.712;2023-05-07T03:40:49;99067.84;;;18.51;56.47
54306;BME280;66145;45.188;5.712;2023-05-07T03:43:15;99083.00;;;18.57;56.24
54306;BME280;66145;45.188;5.712;2023-05-07T03:45:40;99098.34;;;18.67;56.43
54306;BME280;66145;45.188;5.712;2023-05-07T03:48:06;99062.50;;;18.46;56.42
54306;BME280;66145;45.188;5.712;2023-05-07T03:50:31;99073.13;;;18.47;56.69
54306;BME280;66145;45.188;5.712;2023-05-07T03:52:56;99071.19;;;18.48;56.58
54306;BME280;66145;45.188;5.712;2023-05-07T03:55:22;99086.53;;;18.58;56.76
54306;BME280;66145;45.188;5.712;2023-05-07T03:57:47;99101.38;;;18.65;56.67
54306;BME280;66145;45.188;5.712;2023-05-07T04:00:13;99068.13;;;18.41;56.76
54306;BME280;66145;45.188;5.712;2023-05-07T04:02:38;99098.81;;;18.60;56.78
54306;BME280;66145;45.188;5.712;2023-05-07T04:05:04;99109.63;;;18.65;56.80
54306;BME280;66145;45.188;5.712;2023-05-07T04:07:30;99087.34;;;18.49;56.79
54306;BME280;66145;45.188;5.712;2023-05-07T04:09:55;99087.63;;;18.48;56.59
54306;BME280;66145;45.188;5.712;2023-05-07T04:12:20;99091.81;;;18.45;56.38
54306;BME280;66145;45.188;5.712;2023-05-07T04:14:46;99120.41;;;18.62;56.67
54306;BME280;66145;45.188;5.712;2023-05-07T04:17:11;99123.13;;;18.62;56.83
54306;BME280;66145;45.188;5.712;2023-05-07T04:19:36;99134.25;;;18.65;56.94
54306;BME280;66145;45.188;5.712;2023-05-07T04:22:02;99122.16;;;18.58;56.88
54306;BME280;66145;45.188;5.712;2023-05-07T04:24:27;99101.78;;;18.41;57.13
54306;BME280;66145;45.188;5.712;2023-05-07T04:26:52;99111.50;;;18.47;56.85
54306;BME280;66145;45.188;5.712;2023-05-07T04:29:18;99129.56;;;18.57;56.94
54306;BME280;66145;45.188;5.712;2023-05-07T04:31:44;99118.09;;;18.46;56.72
54306;BME280;66145;45.188;5.712;2023-05-07T04:34:10;99118.72;;;18.43;56.88
54306;BME280;66145;45.188;5.712;2023-05-07T04:36:37;99119.81;;;18.42;56.92
54306;BME280;66145;45.188;5.712;2023-05-07T04:39:03;99141.31;;;18.58;57.28
54306;BME280;66145;45.188;5.712;2023-05-07T04:41:29;99140.81;;;18.55;57.02
54306;BME280;66145;45.188;5.712;2023-05-07T04:43:54;99139.22;;;18.54;56.78
54306;BME280;66145;45.188;5.712;2023-05-07T04:46:20;99154.88;;;18.63;56.83
54306;BME280;66145;45.188;5.712;2023-05-07T04:48:46;99133.53;;;18.42;57.00
54306;BME280;66145;45.188;5.712;2023-05-07T04:51:11;99126.59;;;18.36;56.90
54306;BME280;66145;45.188;5.712;2023-05-07T04:53:37;99174.06;;;18.63;56.94
54306;BME280;66145;45.188;5.712;2023-05-07T04:56:03;99168.59;;;18.63;56.97
54306;BME280;66145;45.188;5.712;2023-05-07T04:58:28;99132.53;;;18.38;57.23
54306;BME280;66145;45.188;5.712;2023-05-07T05:00:57;99176.81;;;18.63;57.04
54306;BME280;66145;45.188;5.712;2023-05-07T05:03:22;99165.19;;;18.57;57.18
54306;BME280;66145;45.188;5.712;2023-05-07T05:05:49;99114.88;;;18.21;56.99
54306;BME280;66145;45.188;5.712;2023-05-07T05:08:14;99155.81;;;18.49;56.99
54306;BME280;66145;45.188;5.712;2023-05-07T05:10:40;99155.31;;;18.47;56.94
54306;BME280;66145;45.188;5.712;2023-05-07T05:13:06;99145.94;;;18.39;57.06
54306;BME280;66145;45.188;5.712;2023-05-07T05:15:32;99181.78;;;18.61;57.08
54306;BME280;66145;45.188;5.712;2023-05-07T05:17:57;99187.28;;;18.61;57.18
54306;BME280;66145;45.188;5.712;2023-05-07T05:20:22;99193.53;;;18.61;57.43
54306;BME280;66145;45.188;5.712;2023-05-07T05:22:48;99149.59;;;18.35;56.92
54306;BME280;66145;45.188;5.712;2023-05-07T05:25:13;99182.75;;;18.56;57.37
54306;BME280;66145;45.188;5.712;2023-05-07T05:27:39;99194.19;;;18.58;57.06
54306;BME280;66145;45.188;5.712;2023-05-07T05:30:05;99196.59;;;18.60;57.23
54306;BME280;66145;45.188;5.712;2023-05-07T05:32:30;99188.50;;;18.54;57.25
54306;BME280;66145;45.188;5.712;2023-05-07T05:34:56;99156.06;;;18.39;57.13
54306;BME280;66145;45.188;5.712;2023-05-07T05:37:21;99186.72;;;18.50;57.27
54306;BME280;66145;45.188;5.712;2023-05-07T05:39:47;99160.56;;;18.35;57.44
54306;BME280;66145;45.188;5.712;2023-05-07T05:42:12;99191.75;;;18.57;57.30
54306;BME280;66145;45.188;5.712;2023-05-07T05:44:37;99160.72;;;18.38;57.25
54306;BME280;66145;45.188;5.712;2023-05-07T05:47:03;99182.38;;;18.49;57.42
54306;BME280;66145;45.188;5.712;2023-05-07T05:49:28;99189.50;;;18.59;57.19
54306;BME280;66145;45.188;5.712;2023-05-07T05:51:53;99189.16;;;18.51;57.27
54306;BME280;66145;45.188;5.712;2023-05-07T05:54:19;99173.34;;;18.48;57.50
54306;BME280;66145;45.188;5.712;2023-05-07T05:56:44;99094.16;;;17.98;57.04
54306;BME280;66145;45.188;5.712;2023-05-07T05:59:10;99170.13;;;18.46;57.32
54306;BME280;66145;45.188;5.712;2023-05-07T06:01:35;99152.34;;;18.35;57.38
54306;BME280;66145;45.188;5.712;2023-05-07T06:04:01;99158.63;;;18.35;57.21
54306;BME280;66145;45.188;5.712;2023-05-07T06:06:26;99144.94;;;18.35;57.14
54306;BME280;66145;45.188;5.712;2023-05-07T06:08:52;99189.00;;;18.57;57.29
54306;BME280;66145;45.188;5.712;2023-05-07T06:11:17;99186.09;;;18.53;57.36
54306;BME280;66145;45.188;5.712;2023-05-07T06:13:43;99151.22;;;18.36;57.32
54306;BME280;66145;45.188;5.712;2023-05-07T06:16:08;99155.09;;;18.35;57.35
54306;BME280;66145;45.188;5.712;2023-05-07T06:18:33;99107.94;;;18.15;57.53
54306;BME280;66145;45.188;5.712;2023-05-07T06:21:01;99170.91;;;18.47;57.40
54306;BME280;66145;45.188;5.712;2023-05-07T06:23:26;99145.88;;;18.31;57.43
54306;BME280;66145;45.188;5.712;2023-05-07T06:25:52;99120.81;;;18.15;57.56
54306;BME280;66145;45.188;5.712;2023-05-07T06:28:17;99123.53;;;18.15;57.27
54306;BME280;66145;45.188;5.712;2023-05-07T06:30:43;99190.13;;;18.55;57.26
54306;BME280;66145;45.188;5.712;2023-05-07T06:33:08;99129.53;;;18.17;57.39
54306;BME280;66145;45.188;5.712;2023-05-07T06:35:33;99185.78;;;18.54;57.37
54306;BME280;66145;45.188;5.712;2023-05-07T06:37:59;99156.38;;;18.37;57.37
54306;BME280;66145;45.188;5.712;2023-05-07T06:40:25;99173.34;;;18.48;57.22
54306;BME280;66145;45.188;5.712;2023-05-07T06:42:50;99183.50;;;18.48;57.18
54306;BME280;66145;45.188;5.712;2023-05-07T06:45:16;99153.75;;;18.32;57.43
54306;BME280;66145;45.188;5.712;2023-05-07T06:47:41;99194.00;;;18.54;57.18
54306;BME280;66145;45.188;5.712;2023-05-07T06:50:07;99188.84;;;18.53;57.35
54306;BME280;66145;45.188;5.712;2023-05-07T06:52:32;99189.47;;;18.50;57.29
54306;BME280;66145;45.188;5.712;2023-05-07T06:54:59;99186.44;;;18.51;57.36
54306;BME280;66145;45.188;5.712;2023-05-07T06:57:25;99184.97;;;18.54;57.32
54306;BME280;66145;45.188;5.712;2023-05-07T06:59:50;99155.38;;;18.33;57.35
54306;BME280;66145;45.188;5.712;2023-05-07T07:02:15;99171.06;;;18.42;57.30
54306;BME280;66145;45.188;5.712;2023-05-07T07:04:41;99121.63;;;18.15;57.05
54306;BME280;66145;45.188;5.712;2023-05-07T07:07:07;99158.28;;;18.37;57.42
54306;BME280;66145;45.188;5.712;2023-05-07T07:09:32;99157.81;;;18.35;57.27
54306;BME280;66145;45.188;5.712;2023-05-07T07:11:58;99185.09;;;18.49;57.54
54306;BME280;66145;45.188;5.712;2023-05-07T07:14:23;99159.88;;;18.29;57.33
54306;BME280;66145;45.188;5.712;2023-05-07T07:16:49;99120.59;;;18.02;57.52
54306;BME280;66145;45.188;5.712;2023-05-07T07:19:14;99159.56;;;18.31;57.33
54306;BME280;66145;45.188;5.712;2023-05-07T07:21:41;99180.41;;;18.41;57.19
54306;BME280;66145;45.188;5.712;2023-05-07T07:24:06;99202.88;;;18.51;57.33
54306;BME280;66145;45.188;5.712;2023-05-07T07:26:31;99165.53;;;18.33;57.40
54306;BME280;66145;45.188;5.712;2023-05-07T07:28:57;99206.06;;;18.53;57.31
54306;BME280;66145;45.188;5.712;2023-05-07T07:31:22;99195.25;;;18.48;57.33
54306;BME280;66145;45.188;5.712;2023-05-07T07:33:47;99204.28;;;18.49;57.28
54306;BME280;66145;45.188;5.712;2023-05-07T07:36:15;99126.38;;;18.01;57.34
54306;BME280;66145;45.188;5.712;2023-05-07T07:38:40;99201.88;;;18.47;57.40
54306;BME280;66145;45.188;5.712;2023-05-07T07:41:08;99144.66;;;18.14;57.19
54306;BME280;66145;45.188;5.712;2023-05-07T07:43:33;99207.50;;;18.51;57.29
54306;BME280;66145;45.188;5.712;2023-05-07T07:45:58;99207.00;;;18.49;57.37
54306;BME280;66145;45.188;5.712;2023-05-07T07:48:24;99177.44;;;18.28;57.31
54306;BME280;66145;45.188;5.712;2023-05-07T07:50:50;99188.41;;;18.37;57.22
54306;BME280;66145;45.188;5.712;2023-05-07T07:53:16;99190.84;;;18.38;57.21
54306;BME280;66145;45.188;5.712;2023-05-07T07:55:42;99210.56;;;18.49;57.30
54306;BME280;66145;45.188;5.712;2023-05-07T07:58:07;99200.38;;;18.41;57.21
54306;BME280;66145;45.188;5.712;2023-05-07T08:00:32;99197.44;;;18.37;57.33
54306;BME280;66145;45.188;5.712;2023-05-07T08:02:58;99177.44;;;18.28;57.25
54306;BME280;66145;45.188;5.712;2023-05-07T08:05:23;99183.38;;;18.30;57.32
54306;BME280;66145;45.188;5.712;2023-05-07T08:07:48;99227.97;;;18.53;57.32
54306;BME280;66145;45.188;5.712;2023-05-07T08:10:18;99226.88;;;18.54;57.25
54306;BME280;66145;45.188;5.712;2023-05-07T08:12:49;99184.50;;;18.29;57.37
54306;BME280;66145;45.188;5.712;2023-05-07T08:15:15;99183.88;;;18.32;57.23
54306;BME280;66145;45.188;5.712;2023-05-07T08:17:41;99150.63;;;18.16;57.32
54306;BME280;66145;45.188;5.712;2023-05-07T08:20:07;99201.03;;;18.47;57.08
54306;BME280;66145;45.188;5.712;2023-05-07T08:22:33;99204.28;;;18.49;57.32
54306;BME280;66145;45.188;5.712;2023-05-07T08:24:59;99217.69;;;18.50;57.16
54306;BME280;66145;45.188;5.712;2023-05-07T08:27:24;99219.75;;;18.53;57.38
54306;BME280;66145;45.188;5.712;2023-05-07T08:29:50;99217.03;;;18.53;57.23
54306;BME280;66145;45.188;5.712;2023-05-07T08:32:15;99230.72;;;18.53;57.28
54306;BME280;66145;45.188;5.712;2023-05-07T08:34:40;99163.50;;;18.16;57.00
54306;BME280;66145;45.188;5.712;2023-05-07T08:37:06;99220.91;;;18.52;57.20
54306;BME280;66145;45.188;5.712;2023-05-07T08:39:31;99198.56;;;18.36;57.15
54306;BME280;66145;45.188;5.712;2023-05-07T08:42:00;99165.44;;;18.15;57.43
54306;BME280;66145;45.188;5.712;2023-05-07T08:44:26;99226.38;;;18.52;57.15
54306;BME280;66145;45.188;5.712;2023-05-07T08:46:54;99190.81;;;18.30;57.67
54306;BME280;66145;45.188;5.712;2023-05-07T08:49:20;99235.06;;;18.54;57.23
54306;BME280;66145;45.188;5.712;2023-05-07T08:51:46;99227.19;;;18.53;57.32
54306;BME280;66145;45.188;5.712;2023-05-07T08:54:15;99176.38;;;18.15;57.03
54306;BME280;66145;45.188;5.712;2023-05-07T08:56:41;99200.31;;;18.32;57.27
54306;BME280;66145;45.188;5.712;2023-05-07T08:59:06;99197.72;;;18.27;57.28
54306;BME280;66145;45.188;5.712;2023-05-07T09:01:32;99234.72;;;18.47;57.06
54306;BME280;66145;45.188;5.712;2023-05-07T09:04:00;99152.53;;;17.93;57.55
54306;BME280;66145;45.188;5.712;2023-05-07T09:06:26;99232.28;;;18.46;57.27
54306;BME280;66145;45.188;5.712;2023-05-07T09:08:53;99257.81;;;18.55;57.38
54306;BME280;66145;45.188;5.712;2023-05-07T09:11:22;99248.31;;;18.52;57.54
54306;BME280;66145;45.188;5.712;2023-05-07T09:13:56;99257.00;;;18.54;57.38
54306;BME280;66145;45.188;5.712;2023-05-07T09:16:23;99197.97;;;18.17;57.29
54306;BME280;66145;45.188;5.712;2023-05-07T09:18:51;99223.03;;;18.33;57.38
54306;BME280;66145;45.188;5.712;2023-05-07T09:21:18;99154.09;;;17.85;57.35
54306;BME280;66145;45.188;5.712;2023-05-07T09:23:44;99174.59;;;17.97;57.29
54306;BME280;66145;45.188;5.712;2023-05-07T09:26:10;99223.47;;;18.26;57.40
54306;BME280;66145;45.188;5.712;2023-05-07T09:28:44;99250.78;;;18.40;57.33
54306;BME280;66145;45.188;5.712;2023-05-07T09:31:10;99261.63;;;18.45;57.50
54306;BME280;66145;45.188;5.712;2023-05-07T09:33:37;99270.50;;;18.51;57.25
54306;BME280;66145;45.188;5.712;2023-05-07T09:36:06;99239.75;;;18.31;57.52
54306;BME280;66145;45.188;5.712;2023-05-07T09:38:33;99253.72;;;18.44;57.58
54306;BME280;66145;45.188;5.712;2023-05-07T09:41:06;99255.13;;;18.41;57.56
54306;BME280;66145;45.188;5.712;2023-05-07T09:43:36;99269.06;;;18.53;57.42
54306;BME280;66145;45.188;5.712;2023-05-07T09:46:11;99262.28;;;18.51;57.58
54306;BME280;66145;45.188;5.712;2023-05-07T09:48:39;99234.00;;;18.33;57.65
54306;BME280;66145;45.188;5.712;2023-05-07T09:51:15;99269.38;;;18.52;57.70
54306;BME280;66145;45.188;5.712;2023-05-07T09:53:41;99263.59;;;18.53;57.84
54306;BME280;66145;45.188;5.712;2023-05-07T09:56:08;99281.66;;;18.54;58.07
54306;BME280;66145;45.188;5.712;2023-05-07T09:58:39;99168.50;;;17.77;57.90
54306;BME280;66145;45.188;5.712;2023-05-07T10:01:06;99273.13;;;18.56;58.20
54306;BME280;66145;45.188;5.712;2023-05-07T10:03:33;99271.81;;;18.53;57.94
54306;BME280;66145;45.188;5.712;2023-05-07T10:06:00;99283.75;;;18.58;58.38
54306;BME280;66145;45.188;5.712;2023-05-07T10:08:26;99273.25;;;18.51;58.29
54306;BME280;66145;45.188;5.712;2023-05-07T10:10:52;99253.72;;;18.44;58.69
54306;BME280;66145;45.188;5.712;2023-05-07T10:13:19;99241.25;;;18.37;58.94
54306;BME280;66145;45.188;5.712;2023-05-07T10:15:44;99275.19;;;18.50;59.56
54306;BME280;66145;45.188;5.712;2023-05-07T10:18:11;99282.16;;;18.57;59.32
54306;BME280;66145;45.188;5.712;2023-05-07T10:20:37;99258.25;;;18.48;60.06
54306;BME280;66145;45.188;5.712;2023-05-07T10:23:05;99289.91;;;18.63;59.57
54306;BME280;66145;45.188;5.712;2023-05-07T10:25:31;99294.78;;;18.66;60.86
54306;BME280;66145;45.188;5.712;2023-05-07T10:28:02;99277.50;;;18.57;61.03
54306;BME280;66145;45.188;5.712;2023-05-07T10:33:01;99269.34;;;18.43;61.11
54306;BME280;66145;45.188;5.712;2023-05-07T10:35:35;99289.06;;;18.54;60.47
54306;BME280;66145;45.188;5.712;2023-05-07T10:38:01;99278.56;;;18.47;60.79
54306;BME280;66145;45.188;5.712;2023-05-07T10:40:27;99287.31;;;18.58;60.39
54306;BME280;66145;45.188;5.712;2023-05-07T10:42:57;99290.25;;;18.62;60.49
54306;BME280;66145;45.188;5.712;2023-05-07T10:45:24;99295.22;;;18.60;60.48
54306;BME280;66145;45.188;5.712;2023-05-07T10:48:18;99291.38;;;18.61;60.27
54306;BME280;66145;45.188;5.712;2023-05-07T10:50:44;99282.22;;;18.43;60.13
54306;BME280;66145;45.188;5.712;2023-05-07T10:55:43;99264.63;;;18.35;60.01
54306;BME280;66145;45.188;5.712;2023-05-07T11:00:47;99261.88;;;18.35;59.85
54306;BME280;66145;45.188;5.712;2023-05-07T11:03:13;99298.56;;;18.57;59.98
54306;BME280;66145;45.188;5.712;2023-05-07T11:05:40;99247.44;;;18.20;59.91
54306;BME280;66145;45.188;5.712;2023-05-07T11:08:05;99262.16;;;18.33;59.90
54306;BME280;66145;45.188;5.712;2023-05-07T11:10:53;99300.69;;;18.60;59.78
54306;BME280;66145;45.188;5.712;2023-05-07T11:13:42;99306.19;;;18.60;59.61
54306;BME280;66145;45.188;5.712;2023-05-07T11:16:20;99313.59;;;18.59;59.77
54306;BME280;66145;45.188;5.712;2023-05-07T11:18:52;99247.13;;;18.22;59.62
54306;BME280;66145;45.188;5.712;2023-05-07T11:21:38;99282.84;;;18.39;59.61
54306;BME280;66145;45.188;5.712;2023-05-07T11:24:06;99311.16;;;18.58;59.81
54306;BME280;66145;45.188;5.712;2023-05-07T11:27:01;99315.34;;;18.55;59.46
54306;BME280;66145;45.188;5.712;2023-05-07T11:29:27;99326.47;;;18.59;59.68
54306;BME280;66145;45.188;5.712;2023-05-07T11:31:54;99261.75;;;18.17;59.60
54306;BME280;66145;45.188;5.712;2023-05-07T11:34:24;99305.94;;;18.47;59.72
54306;BME280;66145;45.188;5.712;2023-05-07T11:36:51;99231.28;;;17.96;59.66
54306;BME280;66145;45.188;5.712;2023-05-07T11:39:23;99327.59;;;18.58;59.76
54306;BME280;66145;45.188;5.712;2023-05-07T11:41:49;99312.41;;;18.51;59.65
54306;BME280;66145;45.188;5.712;2023-05-07T11:44:15;99258.19;;;18.17;59.45
54306;BME280;66145;45.188;5.712;2023-05-07T11:46:43;99270.13;;;18.21;59.29
54306;BME280;66145;45.188;5.712;2023-05-07T11:49:09;99272.09;;;18.20;59.41
54306;BME280;66145;45.188;5.712;2023-05-07T11:51:34;99335.00;;;18.57;59.32
54306;BME280;66145;45.188;5.712;2023-05-07T11:54:00;99292.47;;;18.37;59.41
54306;BME280;66145;45.188;5.712;2023-05-07T11:56:28;99330.66;;;18.56;59.60
54306;BME280;66145;45.188;5.712;2023-05-07T11:58:53;99304.94;;;18.43;59.42
54306;BME280;66145;45.188;5.712;2023-05-07T12:01:19;99229.03;;;17.98;59.55
54306;BME280;66145;45.188;5.712;2023-05-07T12:03:45;99325.47;;;18.54;59.49
54306;BME280;66145;45.188;5.712;2023-05-07T12:06:11;99329.03;;;18.55;59.82
54306;BME280;66145;45.188;5.712;2023-05-07T12:08:38;99305.97;;;18.33;59.46
54306;BME280;66145;45.188;5.712;2023-05-07T12:11:07;99328.97;;;18.46;59.40
54306;BME280;66145;45.188;5.712;2023-05-07T12:13:33;99294.84;;;18.30;59.40
54306;BME280;66145;45.188;5.712;2023-05-07T12:15:59;99332.91;;;18.54;59.52
54306;BME280;66145;45.188;5.712;2023-05-07T12:18:25;99322.38;;;18.47;59.42
54306;BME280;66145;45.188;5.712;2023-05-07T12:20:51;99304.88;;;18.34;59.20
54306;BME280;66145;45.188;5.712;2023-05-07T12:23:16;99323.00;;;18.44;59.40
54306;BME280;66145;45.188;5.712;2023-05-07T12:25:43;99307.59;;;18.34;59.41
54306;BME280;66145;45.188;5.712;2023-05-07T12:28:13;99261.78;;;18.03;59.51
54306;BME280;66145;45.188;5.712;2023-05-07T12:30:41;99302.44;;;18.33;59.24
54306;BME280;66145;45.188;5.712;2023-05-07T12:33:07;99334.81;;;18.53;59.59
54306;BME280;66145;45.188;5.712;2023-05-07T12:35:40;99314.59;;;18.41;59.61
54306;BME280;66145;45.188;5.712;2023-05-07T12:38:11;99338.03;;;18.55;59.50
54306;BME280;66145;45.188;5.712;2023-05-07T12:40:45;99263.28;;;18.09;59.50
54306;BME280;66145;45.188;5.712;2023-05-07T12:45:44;99335.13;;;18.52;59.49
54306;BME280;66145;45.188;5.712;2023-05-07T12:48:11;99312.78;;;18.36;59.45
54306;BME280;66145;45.188;5.712;2023-05-07T12:50:37;99252.78;;;17.89;59.52
54306;BME280;66145;45.188;5.712;2023-05-07T12:53:07;99343.53;;;18.55;59.42
54306;BME280;66145;45.188;5.712;2023-05-07T12:55:44;99337.06;;;18.51;59.49
54306;BME280;66145;45.188;5.712;2023-05-07T12:58:20;99346.41;;;18.50;59.45
54306;BME280;66145;45.188;5.712;2023-05-07T13:00:50;99325.72;;;18.44;59.55
54306;BME280;66145;45.188;5.712;2023-05-07T13:03:26;99313.91;;;18.35;59.50
54306;BME280;66145;45.188;5.712;2023-05-07T13:05:53;99334.75;;;18.45;59.42
54306;BME280;66145;45.188;5.712;2023-05-07T13:08:27;99350.13;;;18.54;59.61